sensor_id;sensor_type;location;lat;lon;timestamp;P1;durP1;ratioP1;P2;durP2;ratioP2
3527;SDS011;1778;47.966;7.854;2022-12-18T00:00:59;6.88;;;3.88;;
3527;SDS011;1778;47.966;7.854;2022-12-18T00:02:01;7.68;;;3.88;;
3527;SDS011;1778;47.966;7.854;2022-12-18T00:03:03;5.85;;;2.90;;
3527;SDS011;1778;47.966;7.854;2022-12-18T00:04:05;6.80;;;4.35;;
3527;SDS011;1778;47.966;7.854;2022-12-18T00:05:09;4.30;;;3.35;;
3527;SDS011;1778;47.966;7.854;2022-12-18T00:06:11;5.70;;;4.22;;
3527;SDS011;1778;47.966;7.854;2022-12-18T00:07:14;13.98;;;2.85;;
3527;SDS011;1778;47.966;7.854;2022-12-18T00:08:16;4.05;;;3.00;;
3527;SDS011;1778;47.966;7.854;2022-12-18T00:09:18;11.52;;;4.18;;
3527;SDS011;1778;47.966;7.854;2022-12-18T00:10:20;6.28;;;3.15;;
3527;SDS011;1778;47.966;7.854;2022-12-18T00:11:22;5.82;;;3.53;;
3527;SDS011;1778;47.966;7.854;2022-12-18T00:12:26;5.90;;;3.53;;
3527;SDS011;1778;47.966;7.854;2022-12-18T00:13:30;8.65;;;3.97;;
3527;SDS011;1778;47.966;7.854;2022-12-18T00:14:32;3.35;;;3.03;;
3527;SDS011;1778;47.966;7.854;2022-12-18T00:15:34;3.17;;;2.88;;
3527;SDS011;1778;47.966;7.854;2022-12-18T00:16:37;9.45;;;3.80;;
3527;SDS011;1778;47.966;7.854;2022-12-18T00:17:39;11.05;;;3.40;;
3527;SDS011;1778;47.966;7.854;2022-12-18T00:18:41;4.95;;;3.38;;
3527;SDS011;1778;47.966;7.854;2022-12-18T00:19:42;3.95;;;2.80;;
3527;SDS011;1778;47.966;7.854;2022-12-18T00:20:44;3.83;;;3.53;;
3527;SDS011;1778;47.966;7.854;2022-12-18T00:21:45;4.55;;;3.45;;
3527;SDS011;1778;47.966;7.854;2022-12-18T00:22:47;4.00;;;3.58;;
3527;SDS011;1778;47.966;7.854;2022-12-18T00:23:49;10.57;;;5.10;;
3527;SDS011;1778;47.966;7.854;2022-12-18T00:24:51;4.68;;;3.30;;
3527;SDS011;1778;47.966;7.854;2022-12-18T00:25:52;3.90;;;3.60;;
3527;SDS011;1778;47.966;7.854;2022-12-18T00:26:54;6.82;;;3.63;;
3527;SDS011;1778;47.966;7.854;2022-12-18T00:27:56;9.25;;;3.05;;
3527;SDS011;1778;47.966;7.854;2022-12-18T00:28:58;2.67;;;2.47;;
3527;SDS011;1778;47.966;7.854;2022-12-18T00:30:18;4.20;;;2.90;;
3527;SDS011;1778;47.966;7.854;2022-12-18T00:31:21;2.78;;;2.67;;
3527;SDS011;1778;47.966;7.854;2022-12-18T00:32:26;5.68;;;4.05;;
3527;SDS011;1778;47.966;7.854;2022-12-18T00:33:28;6.25;;;3.35;;
3527;SDS011;1778;47.966;7.854;2022-12-18T00:34:29;3.50;;;3.30;;
3527;SDS011;1778;47.966;7.854;2022-12-18T00:35:31;5.13;;;3.80;;
3527;SDS011;1778;47.966;7.854;2022-12-18T00:36:47;4.25;;;3.95;;
3527;SDS011;1778;47.966;7.854;2022-12-18T00:37:49;6.35;;;2.42;;
3527;SDS011;1778;47.966;7.854;2022-12-18T00:38:51;4.90;;;3.85;;
3527;SDS011;1778;47.966;7.854;2022-12-18T00:39:54;10.93;;;4.07;;
3527;SDS011;1778;47.966;7.854;2022-12-18T00:40:56;7.03;;;3.55;;
3527;SDS011;1778;47.966;7.854;2022-12-18T00:41:58;2.95;;;2.70;;
3527;SDS011;1778;47.966;7.854;2022-12-18T00:43:18;9.85;;;4.65;;
3527;SDS011;1778;47.966;7.854;2022-12-18T00:44:20;7.70;;;3.53;;
3527;SDS011;1778;47.966;7.854;2022-12-18T00:45:25;4.13;;;3.83;;
3527;SDS011;1778;47.966;7.854;2022-12-18T00:46:28;3.85;;;3.45;;
3527;SDS011;1778;47.966;7.854;2022-12-18T00:47:29;4.53;;;3.80;;
3527;SDS011;1778;47.966;7.854;2022-12-18T00:48:31;6.00;;;3.75;;
3527;SDS011;1778;47.966;7.854;2022-12-18T00:49:33;3.72;;;3.40;;
3527;SDS011;1778;47.966;7.854;2022-12-18T00:50:35;2.47;;;2.38;;
3527;SDS011;1778;47.966;7.854;2022-12-18T00:51:37;4.65;;;3.85;;
3527;SDS011;1778;47.966;7.854;2022-12-18T00:52:39;3.63;;;3.30;;
3527;SDS011;1778;47.966;7.854;2022-12-18T00:53:41;3.78;;;3.47;;
3527;SDS011;1778;47.966;7.854;2022-12-18T00:54:43;4.22;;;3.80;;
3527;SDS011;1778;47.966;7.854;2022-12-18T00:55:45;3.80;;;2.30;;
3527;SDS011;1778;47.966;7.854;2022-12-18T00:56:47;5.05;;;4.05;;
3527;SDS011;1778;47.966;7.854;2022-12-18T00:57:51;3.88;;;3.25;;
3527;SDS011;1778;47.966;7.854;2022-12-18T00:58:53;3.17;;;2.97;;
3527;SDS011;1778;47.966;7.854;2022-12-18T00:59:54;3.63;;;3.33;;
3527;SDS011;1778;47.966;7.854;2022-12-18T01:00:56;4.22;;;3.63;;
3527;SDS011;1778;47.966;7.854;2022-12-18T01:01:58;3.45;;;3.20;;
3527;SDS011;1778;47.966;7.854;2022-12-18T01:02:59;11.02;;;4.55;;
3527;SDS011;1778;47.966;7.854;2022-12-18T01:04:02;7.05;;;3.17;;
3527;SDS011;1778;47.966;7.854;2022-12-18T01:05:04;2.95;;;2.75;;
3527;SDS011;1778;47.966;7.854;2022-12-18T01:06:09;4.57;;;4.28;;
3527;SDS011;1778;47.966;7.854;2022-12-18T01:07:12;4.15;;;3.08;;
3527;SDS011;1778;47.966;7.854;2022-12-18T01:08:14;3.08;;;2.88;;
3527;SDS011;1778;47.966;7.854;2022-12-18T01:09:17;2.70;;;2.47;;
3527;SDS011;1778;47.966;7.854;2022-12-18T01:10:18;4.10;;;2.97;;
3527;SDS011;1778;47.966;7.854;2022-12-18T01:11:20;14.05;;;3.97;;
3527;SDS011;1778;47.966;7.854;2022-12-18T01:12:22;5.75;;;3.25;;
3527;SDS011;1778;47.966;7.854;2022-12-18T01:13:24;3.05;;;2.85;;
3527;SDS011;1778;47.966;7.854;2022-12-18T01:14:25;7.40;;;3.75;;
3527;SDS011;1778;47.966;7.854;2022-12-18T01:15:27;5.95;;;3.42;;
3527;SDS011;1778;47.966;7.854;2022-12-18T01:16:28;3.63;;;3.08;;
3527;SDS011;1778;47.966;7.854;2022-12-18T01:17:30;4.80;;;3.95;;
3527;SDS011;1778;47.966;7.854;2022-12-18T01:18:34;2.83;;;2.58;;
3527;SDS011;1778;47.966;7.854;2022-12-18T01:19:36;3.03;;;2.78;;
3527;SDS011;1778;47.966;7.854;2022-12-18T01:20:38;4.32;;;3.33;;
3527;SDS011;1778;47.966;7.854;2022-12-18T01:21:39;4.75;;;3.38;;
3527;SDS011;1778;47.966;7.854;2022-12-18T01:22:41;8.18;;;3.50;;
3527;SDS011;1778;47.966;7.854;2022-12-18T01:23:45;5.63;;;3.78;;
3527;SDS011;1778;47.966;7.854;2022-12-18T01:24:47;3.08;;;2.80;;
3527;SDS011;1778;47.966;7.854;2022-12-18T01:25:49;5.03;;;2.92;;
3527;SDS011;1778;47.966;7.854;2022-12-18T01:26:50;3.75;;;3.45;;
3527;SDS011;1778;47.966;7.854;2022-12-18T01:27:52;5.57;;;3.85;;
3527;SDS011;1778;47.966;7.854;2022-12-18T01:28:54;6.25;;;4.57;;
3527;SDS011;1778;47.966;7.854;2022-12-18T01:29:58;2.83;;;2.60;;
3527;SDS011;1778;47.966;7.854;2022-12-18T01:31:16;4.40;;;2.63;;
3527;SDS011;1778;47.966;7.854;2022-12-18T01:32:20;7.38;;;3.60;;
3527;SDS011;1778;47.966;7.854;2022-12-18T01:33:23;3.67;;;3.38;;
3527;SDS011;1778;47.966;7.854;2022-12-18T01:34:25;4.93;;;4.05;;
3527;SDS011;1778;47.966;7.854;2022-12-18T01:35:27;3.20;;;2.85;;
3527;SDS011;1778;47.966;7.854;2022-12-18T01:36:32;4.97;;;3.78;;
3527;SDS011;1778;47.966;7.854;2022-12-18T01:37:35;4.05;;;3.13;;
3527;SDS011;1778;47.966;7.854;2022-12-18T01:38:36;2.88;;;2.50;;
3527;SDS011;1778;47.966;7.854;2022-12-18T01:39:37;3.30;;;3.00;;
3527;SDS011;1778;47.966;7.854;2022-12-18T01:40:40;2.75;;;2.55;;
3527;SDS011;1778;47.966;7.854;2022-12-18T01:41:41;2.92;;;2.72;;
3527;SDS011;1778;47.966;7.854;2022-12-18T01:43:03;3.15;;;2.70;;
3527;SDS011;1778;47.966;7.854;2022-12-18T01:44:45;2.72;;;1.90;;
3527;SDS011;1778;47.966;7.854;2022-12-18T01:45:45;6.50;;;3.28;;
3527;SDS011;1778;47.966;7.854;2022-12-18T01:46:47;4.15;;;3.85;;
3527;SDS011;1778;47.966;7.854;2022-12-18T01:48:58;3.63;;;3.08;;
3527;SDS011;1778;47.966;7.854;2022-12-18T01:50:09;14.18;;;3.25;;
3527;SDS011;1778;47.966;7.854;2022-12-18T01:51:17;2.65;;;2.55;;
3527;SDS011;1778;47.966;7.854;2022-12-18T01:52:19;4.78;;;2.78;;
3527;SDS011;1778;47.966;7.854;2022-12-18T01:53:22;6.22;;;4.00;;
3527;SDS011;1778;47.966;7.854;2022-12-18T01:54:27;3.80;;;2.67;;
3527;SDS011;1778;47.966;7.854;2022-12-18T01:55:30;4.53;;;2.83;;
3527;SDS011;1778;47.966;7.854;2022-12-18T01:56:34;4.15;;;3.42;;
3527;SDS011;1778;47.966;7.854;2022-12-18T01:57:35;2.97;;;2.78;;
3527;SDS011;1778;47.966;7.854;2022-12-18T02:00:00;4.85;;;2.60;;
3527;SDS011;1778;47.966;7.854;2022-12-18T02:01:12;5.10;;;2.80;;
3527;SDS011;1778;47.966;7.854;2022-12-18T02:02:15;3.45;;;2.60;;
3527;SDS011;1778;47.966;7.854;2022-12-18T02:03:18;3.67;;;3.38;;
3527;SDS011;1778;47.966;7.854;2022-12-18T02:04:21;3.47;;;3.10;;
3527;SDS011;1778;47.966;7.854;2022-12-18T02:05:46;3.05;;;2.67;;
3527;SDS011;1778;47.966;7.854;2022-12-18T02:06:47;3.25;;;3.08;;
3527;SDS011;1778;47.966;7.854;2022-12-18T02:09:11;2.40;;;2.13;;
3527;SDS011;1778;47.966;7.854;2022-12-18T02:10:24;2.90;;;2.70;;
3527;SDS011;1778;47.966;7.854;2022-12-18T02:16:53;3.25;;;2.65;;
3527;SDS011;1778;47.966;7.854;2022-12-18T02:18:07;5.18;;;3.10;;
3527;SDS011;1778;47.966;7.854;2022-12-18T02:20:34;4.40;;;3.40;;
3527;SDS011;1778;47.966;7.854;2022-12-18T02:23:24;3.33;;;3.08;;
3527;SDS011;1778;47.966;7.854;2022-12-18T02:27:11;8.25;;;3.40;;
3527;SDS011;1778;47.966;7.854;2022-12-18T02:28:20;6.20;;;3.65;;
3527;SDS011;1778;47.966;7.854;2022-12-18T02:29:41;11.55;;;4.15;;
3527;SDS011;1778;47.966;7.854;2022-12-18T02:30:58;3.70;;;2.55;;
3527;SDS011;1778;47.966;7.854;2022-12-18T02:32:05;7.72;;;3.97;;
3527;SDS011;1778;47.966;7.854;2022-12-18T02:33:11;4.22;;;3.83;;
3527;SDS011;1778;47.966;7.854;2022-12-18T02:34:16;2.75;;;2.47;;
3527;SDS011;1778;47.966;7.854;2022-12-18T02:35:20;5.38;;;3.53;;
3527;SDS011;1778;47.966;7.854;2022-12-18T02:36:31;3.40;;;3.03;;
3527;SDS011;1778;47.966;7.854;2022-12-18T02:37:34;6.38;;;4.03;;
3527;SDS011;1778;47.966;7.854;2022-12-18T02:38:39;4.00;;;3.70;;
3527;SDS011;1778;47.966;7.854;2022-12-18T02:39:46;5.07;;;4.03;;
3527;SDS011;1778;47.966;7.854;2022-12-18T02:40:50;3.65;;;2.85;;
3527;SDS011;1778;47.966;7.854;2022-12-18T02:41:55;4.30;;;3.92;;
3527;SDS011;1778;47.966;7.854;2022-12-18T02:43:08;5.95;;;2.92;;
3527;SDS011;1778;47.966;7.854;2022-12-18T02:44:12;3.83;;;3.47;;
3527;SDS011;1778;47.966;7.854;2022-12-18T02:45:16;3.70;;;2.42;;
3527;SDS011;1778;47.966;7.854;2022-12-18T02:46:34;5.72;;;3.50;;
3527;SDS011;1778;47.966;7.854;2022-12-18T02:47:43;2.33;;;2.15;;
3527;SDS011;1778;47.966;7.854;2022-12-18T02:48:48;2.22;;;2.13;;
3527;SDS011;1778;47.966;7.854;2022-12-18T02:51:29;2.75;;;2.58;;
3527;SDS011;1778;47.966;7.854;2022-12-18T02:57:02;3.13;;;2.97;;
3527;SDS011;1778;47.966;7.854;2022-12-18T02:58:18;5.38;;;2.97;;
3527;SDS011;1778;47.966;7.854;2022-12-18T02:59:40;4.13;;;3.65;;
3527;SDS011;1778;47.966;7.854;2022-12-18T03:01:40;4.55;;;2.65;;
3527;SDS011;1778;47.966;7.854;2022-12-18T03:04:12;5.10;;;3.75;;
3527;SDS011;1778;47.966;7.854;2022-12-18T03:05:23;8.65;;;4.82;;
3527;SDS011;1778;47.966;7.854;2022-12-18T03:06:35;5.47;;;4.07;;
3527;SDS011;1778;47.966;7.854;2022-12-18T03:09:38;5.97;;;4.25;;
3527;SDS011;1778;47.966;7.854;2022-12-18T03:11:06;4.15;;;3.75;;
3527;SDS011;1778;47.966;7.854;2022-12-18T03:12:09;7.25;;;3.58;;
3527;SDS011;1778;47.966;7.854;2022-12-18T03:16:23;7.22;;;4.80;;
3527;SDS011;1778;47.966;7.854;2022-12-18T03:17:31;9.00;;;5.68;;
3527;SDS011;1778;47.966;7.854;2022-12-18T03:20:14;6.32;;;4.03;;
3527;SDS011;1778;47.966;7.854;2022-12-18T03:21:21;3.53;;;3.22;;
3527;SDS011;1778;47.966;7.854;2022-12-18T03:22:30;4.40;;;3.20;;
3527;SDS011;1778;47.966;7.854;2022-12-18T03:23:39;2.78;;;2.58;;
3527;SDS011;1778;47.966;7.854;2022-12-18T03:24:45;7.50;;;3.28;;
3527;SDS011;1778;47.966;7.854;2022-12-18T03:25:48;4.60;;;3.95;;
3527;SDS011;1778;47.966;7.854;2022-12-18T03:27:00;7.25;;;3.95;;
3527;SDS011;1778;47.966;7.854;2022-12-18T03:28:04;3.00;;;2.75;;
3527;SDS011;1778;47.966;7.854;2022-12-18T03:29:11;3.75;;;3.47;;
3527;SDS011;1778;47.966;7.854;2022-12-18T03:30:18;6.25;;;5.57;;
3527;SDS011;1778;47.966;7.854;2022-12-18T03:31:21;3.88;;;3.28;;
3527;SDS011;1778;47.966;7.854;2022-12-18T03:32:26;4.65;;;4.22;;
3527;SDS011;1778;47.966;7.854;2022-12-18T03:33:43;3.53;;;2.28;;
3527;SDS011;1778;47.966;7.854;2022-12-18T03:34:55;4.05;;;3.38;;
3527;SDS011;1778;47.966;7.854;2022-12-18T03:36:04;4.60;;;3.95;;
3527;SDS011;1778;47.966;7.854;2022-12-18T03:37:06;4.90;;;4.50;;
3527;SDS011;1778;47.966;7.854;2022-12-18T03:38:10;6.47;;;3.95;;
3527;SDS011;1778;47.966;7.854;2022-12-18T03:39:16;3.53;;;3.05;;
3527;SDS011;1778;47.966;7.854;2022-12-18T03:40:34;2.53;;;2.38;;
3527;SDS011;1778;47.966;7.854;2022-12-18T03:42:29;10.13;;;3.78;;
3527;SDS011;1778;47.966;7.854;2022-12-18T03:44:14;4.18;;;3.28;;
3527;SDS011;1778;47.966;7.854;2022-12-18T03:44:51;21.25;;;5.18;;
3527;SDS011;1778;47.966;7.854;2022-12-18T03:46:05;5.18;;;4.03;;
3527;SDS011;1778;47.966;7.854;2022-12-18T03:47:27;4.38;;;2.78;;
3527;SDS011;1778;47.966;7.854;2022-12-18T03:48:38;3.97;;;3.58;;
3527;SDS011;1778;47.966;7.854;2022-12-18T03:50:57;10.02;;;4.20;;
3527;SDS011;1778;47.966;7.854;2022-12-18T03:52:07;4.30;;;3.95;;
3527;SDS011;1778;47.966;7.854;2022-12-18T03:54:25;2.63;;;2.50;;
3527;SDS011;1778;47.966;7.854;2022-12-18T03:55:38;6.78;;;3.63;;
3527;SDS011;1778;47.966;7.854;2022-12-18T03:56:45;3.42;;;3.08;;
3527;SDS011;1778;47.966;7.854;2022-12-18T03:57:50;6.18;;;2.85;;
3527;SDS011;1778;47.966;7.854;2022-12-18T03:58:54;2.95;;;2.42;;
3527;SDS011;1778;47.966;7.854;2022-12-18T04:00:05;8.63;;;3.28;;
3527;SDS011;1778;47.966;7.854;2022-12-18T04:01:30;2.33;;;2.22;;
3527;SDS011;1778;47.966;7.854;2022-12-18T04:02:34;3.33;;;3.00;;
3527;SDS011;1778;47.966;7.854;2022-12-18T04:03:40;4.00;;;3.30;;
3527;SDS011;1778;47.966;7.854;2022-12-18T04:04:45;3.55;;;2.97;;
3527;SDS011;1778;47.966;7.854;2022-12-18T04:05:52;2.80;;;2.58;;
3527;SDS011;1778;47.966;7.854;2022-12-18T04:06:56;3.33;;;2.80;;
3527;SDS011;1778;47.966;7.854;2022-12-18T04:07:59;2.10;;;2.00;;
3527;SDS011;1778;47.966;7.854;2022-12-18T04:09:02;2.67;;;2.47;;
3527;SDS011;1778;47.966;7.854;2022-12-18T04:10:12;2.42;;;2.22;;
3527;SDS011;1778;47.966;7.854;2022-12-18T04:11:16;3.40;;;2.33;;
3527;SDS011;1778;47.966;7.854;2022-12-18T04:12:20;2.40;;;2.20;;
3527;SDS011;1778;47.966;7.854;2022-12-18T04:13:23;3.58;;;3.20;;
3527;SDS011;1778;47.966;7.854;2022-12-18T04:14:31;4.65;;;3.45;;
3527;SDS011;1778;47.966;7.854;2022-12-18T04:15:40;3.38;;;2.75;;
3527;SDS011;1778;47.966;7.854;2022-12-18T04:16:46;2.75;;;2.63;;
3527;SDS011;1778;47.966;7.854;2022-12-18T04:17:50;1.75;;;1.65;;
3527;SDS011;1778;47.966;7.854;2022-12-18T04:18:55;3.05;;;2.75;;
3527;SDS011;1778;47.966;7.854;2022-12-18T04:19:58;3.13;;;2.92;;
3527;SDS011;1778;47.966;7.854;2022-12-18T04:21:00;2.92;;;2.45;;
3527;SDS011;1778;47.966;7.854;2022-12-18T04:22:02;5.05;;;3.67;;
3527;SDS011;1778;47.966;7.854;2022-12-18T04:23:12;4.05;;;2.60;;
3527;SDS011;1778;47.966;7.854;2022-12-18T04:24:14;2.40;;;2.30;;
3527;SDS011;1778;47.966;7.854;2022-12-18T04:25:25;2.80;;;2.60;;
3527;SDS011;1778;47.966;7.854;2022-12-18T04:26:37;2.55;;;2.45;;
3527;SDS011;1778;47.966;7.854;2022-12-18T04:27:47;2.97;;;2.80;;
3527;SDS011;1778;47.966;7.854;2022-12-18T04:28:48;4.05;;;2.65;;
3527;SDS011;1778;47.966;7.854;2022-12-18T04:29:50;3.47;;;3.17;;
3527;SDS011;1778;47.966;7.854;2022-12-18T04:30:52;3.70;;;3.38;;
3527;SDS011;1778;47.966;7.854;2022-12-18T04:31:55;1.80;;;1.75;;
3527;SDS011;1778;47.966;7.854;2022-12-18T04:32:59;4.60;;;3.25;;
3527;SDS011;1778;47.966;7.854;2022-12-18T04:34:03;2.50;;;1.60;;
3527;SDS011;1778;47.966;7.854;2022-12-18T04:35:11;2.47;;;2.28;;
3527;SDS011;1778;47.966;7.854;2022-12-18T04:36:16;3.25;;;2.05;;
3527;SDS011;1778;47.966;7.854;2022-12-18T04:37:18;2.75;;;2.65;;
3527;SDS011;1778;47.966;7.854;2022-12-18T04:38:22;1.83;;;1.75;;
3527;SDS011;1778;47.966;7.854;2022-12-18T04:39:32;6.18;;;3.58;;
3527;SDS011;1778;47.966;7.854;2022-12-18T04:40:39;2.85;;;2.70;;
3527;SDS011;1778;47.966;7.854;2022-12-18T04:41:48;2.35;;;2.25;;
3527;SDS011;1778;47.966;7.854;2022-12-18T04:42:50;2.00;;;2.00;;
3527;SDS011;1778;47.966;7.854;2022-12-18T04:43:51;3.22;;;2.35;;
3527;SDS011;1778;47.966;7.854;2022-12-18T04:44:53;4.82;;;2.25;;
3527;SDS011;1778;47.966;7.854;2022-12-18T04:46:01;2.67;;;2.13;;
3527;SDS011;1778;47.966;7.854;2022-12-18T04:47:03;3.22;;;3.03;;
3527;SDS011;1778;47.966;7.854;2022-12-18T04:48:05;2.63;;;2.28;;
3527;SDS011;1778;47.966;7.854;2022-12-18T04:49:07;1.85;;;1.85;;
3527;SDS011;1778;47.966;7.854;2022-12-18T04:50:08;3.00;;;2.88;;
3527;SDS011;1778;47.966;7.854;2022-12-18T04:51:10;4.20;;;2.70;;
3527;SDS011;1778;47.966;7.854;2022-12-18T04:52:12;3.83;;;2.65;;
3527;SDS011;1778;47.966;7.854;2022-12-18T04:53:14;7.72;;;2.20;;
3527;SDS011;1778;47.966;7.854;2022-12-18T04:54:15;2.10;;;2.00;;
3527;SDS011;1778;47.966;7.854;2022-12-18T04:55:20;3.55;;;3.25;;
3527;SDS011;1778;47.966;7.854;2022-12-18T04:56:27;1.85;;;1.83;;
3527;SDS011;1778;47.966;7.854;2022-12-18T04:57:28;4.55;;;2.65;;
3527;SDS011;1778;47.966;7.854;2022-12-18T04:58:30;1.75;;;1.75;;
3527;SDS011;1778;47.966;7.854;2022-12-18T04:59:32;1.98;;;1.90;;
3527;SDS011;1778;47.966;7.854;2022-12-18T05:00:33;3.35;;;3.15;;
3527;SDS011;1778;47.966;7.854;2022-12-18T05:01:35;4.25;;;2.35;;
3527;SDS011;1778;47.966;7.854;2022-12-18T05:02:36;2.35;;;2.25;;
3527;SDS011;1778;47.966;7.854;2022-12-18T05:03:38;2.10;;;2.00;;
3527;SDS011;1778;47.966;7.854;2022-12-18T05:04:41;1.50;;;1.40;;
3527;SDS011;1778;47.966;7.854;2022-12-18T05:05:42;2.03;;;1.92;;
3527;SDS011;1778;47.966;7.854;2022-12-18T05:06:43;3.10;;;2.90;;
3527;SDS011;1778;47.966;7.854;2022-12-18T05:07:45;1.73;;;1.63;;
3527;SDS011;1778;47.966;7.854;2022-12-18T05:08:47;2.60;;;2.38;;
3527;SDS011;1778;47.966;7.854;2022-12-18T05:09:48;3.38;;;2.40;;
3527;SDS011;1778;47.966;7.854;2022-12-18T05:10:57;1.52;;;1.48;;
3527;SDS011;1778;47.966;7.854;2022-12-18T05:12:10;1.52;;;1.52;;
3527;SDS011;1778;47.966;7.854;2022-12-18T05:13:11;2.65;;;2.15;;
3527;SDS011;1778;47.966;7.854;2022-12-18T05:14:13;1.90;;;1.80;;
3527;SDS011;1778;47.966;7.854;2022-12-18T05:15:14;2.55;;;2.35;;
3527;SDS011;1778;47.966;7.854;2022-12-18T05:16:16;2.88;;;2.47;;
3527;SDS011;1778;47.966;7.854;2022-12-18T05:17:18;1.85;;;1.75;;
3527;SDS011;1778;47.966;7.854;2022-12-18T05:18:19;1.83;;;1.80;;
3527;SDS011;1778;47.966;7.854;2022-12-18T05:19:21;3.08;;;1.60;;
3527;SDS011;1778;47.966;7.854;2022-12-18T05:20:23;2.58;;;1.52;;
3527;SDS011;1778;47.966;7.854;2022-12-18T05:21:25;2.88;;;1.98;;
3527;SDS011;1778;47.966;7.854;2022-12-18T05:22:26;1.50;;;1.50;;
3527;SDS011;1778;47.966;7.854;2022-12-18T05:23:28;2.08;;;1.98;;
3527;SDS011;1778;47.966;7.854;2022-12-18T05:24:30;2.13;;;2.03;;
3527;SDS011;1778;47.966;7.854;2022-12-18T05:25:32;1.70;;;1.70;;
3527;SDS011;1778;47.966;7.854;2022-12-18T05:26:33;1.92;;;1.92;;
3527;SDS011;1778;47.966;7.854;2022-12-18T05:27:35;2.95;;;1.40;;
3527;SDS011;1778;47.966;7.854;2022-12-18T05:28:36;7.30;;;3.35;;
3527;SDS011;1778;47.966;7.854;2022-12-18T05:29:38;1.77;;;1.67;;
3527;SDS011;1778;47.966;7.854;2022-12-18T05:30:46;7.32;;;1.75;;
3527;SDS011;1778;47.966;7.854;2022-12-18T05:31:49;2.20;;;2.03;;
3527;SDS011;1778;47.966;7.854;2022-12-18T05:32:51;1.95;;;1.58;;
3527;SDS011;1778;47.966;7.854;2022-12-18T05:33:53;2.78;;;2.58;;
3527;SDS011;1778;47.966;7.854;2022-12-18T05:34:56;2.20;;;2.10;;
3527;SDS011;1778;47.966;7.854;2022-12-18T05:35:59;3.45;;;2.42;;
3527;SDS011;1778;47.966;7.854;2022-12-18T05:37:05;2.60;;;2.50;;
3527;SDS011;1778;47.966;7.854;2022-12-18T05:38:06;4.53;;;2.55;;
3527;SDS011;1778;47.966;7.854;2022-12-18T05:39:08;2.22;;;2.13;;
3527;SDS011;1778;47.966;7.854;2022-12-18T05:40:10;1.70;;;1.70;;
3527;SDS011;1778;47.966;7.854;2022-12-18T05:41:12;1.90;;;1.80;;
3527;SDS011;1778;47.966;7.854;2022-12-18T05:42:13;1.95;;;1.83;;
3527;SDS011;1778;47.966;7.854;2022-12-18T05:43:15;2.35;;;2.25;;
3527;SDS011;1778;47.966;7.854;2022-12-18T05:44:21;1.65;;;1.55;;
3527;SDS011;1778;47.966;7.854;2022-12-18T05:45:22;1.50;;;1.50;;
3527;SDS011;1778;47.966;7.854;2022-12-18T05:46:24;1.55;;;1.55;;
3527;SDS011;1778;47.966;7.854;2022-12-18T05:47:26;1.63;;;1.52;;
3527;SDS011;1778;47.966;7.854;2022-12-18T05:48:29;2.05;;;1.95;;
3527;SDS011;1778;47.966;7.854;2022-12-18T05:49:31;2.00;;;1.90;;
3527;SDS011;1778;47.966;7.854;2022-12-18T05:50:39;2.97;;;2.75;;
3527;SDS011;1778;47.966;7.854;2022-12-18T05:51:42;3.78;;;2.45;;
3527;SDS011;1778;47.966;7.854;2022-12-18T05:52:44;2.75;;;2.47;;
3527;SDS011;1778;47.966;7.854;2022-12-18T05:53:45;1.85;;;1.77;;
3527;SDS011;1778;47.966;7.854;2022-12-18T05:54:47;1.40;;;1.40;;
3527;SDS011;1778;47.966;7.854;2022-12-18T05:55:49;1.90;;;1.80;;
3527;SDS011;1778;47.966;7.854;2022-12-18T05:56:50;1.65;;;1.65;;
3527;SDS011;1778;47.966;7.854;2022-12-18T05:57:52;1.25;;;1.25;;
3527;SDS011;1778;47.966;7.854;2022-12-18T05:58:53;1.50;;;1.42;;
3527;SDS011;1778;47.966;7.854;2022-12-18T05:59:55;1.70;;;1.60;;
3527;SDS011;1778;47.966;7.854;2022-12-18T06:00:57;3.90;;;1.25;;
3527;SDS011;1778;47.966;7.854;2022-12-18T06:01:59;2.90;;;1.85;;
3527;SDS011;1778;47.966;7.854;2022-12-18T06:03:01;1.70;;;1.60;;
3527;SDS011;1778;47.966;7.854;2022-12-18T06:04:02;2.05;;;2.05;;
3527;SDS011;1778;47.966;7.854;2022-12-18T06:05:05;3.15;;;2.95;;
3527;SDS011;1778;47.966;7.854;2022-12-18T06:06:17;2.25;;;2.05;;
3527;SDS011;1778;47.966;7.854;2022-12-18T06:07:20;2.05;;;1.88;;
3527;SDS011;1778;47.966;7.854;2022-12-18T06:08:22;3.15;;;1.85;;
3527;SDS011;1778;47.966;7.854;2022-12-18T06:09:23;1.40;;;1.40;;
3527;SDS011;1778;47.966;7.854;2022-12-18T06:10:25;2.65;;;1.65;;
3527;SDS011;1778;47.966;7.854;2022-12-18T06:11:26;1.92;;;1.92;;
3527;SDS011;1778;47.966;7.854;2022-12-18T06:12:28;3.10;;;2.90;;
3527;SDS011;1778;47.966;7.854;2022-12-18T06:13:29;2.03;;;1.92;;
3527;SDS011;1778;47.966;7.854;2022-12-18T06:14:31;1.65;;;1.63;;
3527;SDS011;1778;47.966;7.854;2022-12-18T06:15:32;2.58;;;2.45;;
3527;SDS011;1778;47.966;7.854;2022-12-18T06:16:37;1.55;;;1.55;;
3527;SDS011;1778;47.966;7.854;2022-12-18T06:17:38;1.77;;;1.75;;
3527;SDS011;1778;47.966;7.854;2022-12-18T06:18:39;1.73;;;1.70;;
3527;SDS011;1778;47.966;7.854;2022-12-18T06:19:41;1.40;;;1.40;;
3527;SDS011;1778;47.966;7.854;2022-12-18T06:20:43;2.10;;;1.58;;
3527;SDS011;1778;47.966;7.854;2022-12-18T06:21:45;1.80;;;1.70;;
3527;SDS011;1778;47.966;7.854;2022-12-18T06:22:47;2.15;;;2.05;;
3527;SDS011;1778;47.966;7.854;2022-12-18T06:23:49;1.77;;;1.55;;
3527;SDS011;1778;47.966;7.854;2022-12-18T06:24:51;1.77;;;1.77;;
3527;SDS011;1778;47.966;7.854;2022-12-18T06:25:52;2.00;;;1.90;;
3527;SDS011;1778;47.966;7.854;2022-12-18T06:26:54;1.52;;;1.52;;
3527;SDS011;1778;47.966;7.854;2022-12-18T06:27:56;1.95;;;1.85;;
3527;SDS011;1778;47.966;7.854;2022-12-18T06:28:58;1.73;;;1.73;;
3527;SDS011;1778;47.966;7.854;2022-12-18T06:29:59;1.67;;;1.58;;
3527;SDS011;1778;47.966;7.854;2022-12-18T06:31:02;2.72;;;2.53;;
3527;SDS011;1778;47.966;7.854;2022-12-18T06:32:05;1.83;;;1.83;;
3527;SDS011;1778;47.966;7.854;2022-12-18T06:33:07;3.17;;;2.17;;
3527;SDS011;1778;47.966;7.854;2022-12-18T06:34:08;2.30;;;2.20;;
3527;SDS011;1778;47.966;7.854;2022-12-18T06:35:10;2.15;;;2.05;;
3527;SDS011;1778;47.966;7.854;2022-12-18T06:36:12;3.03;;;1.73;;
3527;SDS011;1778;47.966;7.854;2022-12-18T06:37:14;4.40;;;2.92;;
3527;SDS011;1778;47.966;7.854;2022-12-18T06:38:16;3.47;;;2.65;;
3527;SDS011;1778;47.966;7.854;2022-12-18T06:39:17;1.92;;;1.83;;
3527;SDS011;1778;47.966;7.854;2022-12-18T06:40:18;1.60;;;1.50;;
3527;SDS011;1778;47.966;7.854;2022-12-18T06:41:21;1.65;;;1.65;;
3527;SDS011;1778;47.966;7.854;2022-12-18T06:42:23;5.65;;;2.38;;
3527;SDS011;1778;47.966;7.854;2022-12-18T06:43:25;1.50;;;1.40;;
3527;SDS011;1778;47.966;7.854;2022-12-18T06:44:27;1.92;;;1.52;;
3527;SDS011;1778;47.966;7.854;2022-12-18T06:45:29;1.85;;;1.85;;
3527;SDS011;1778;47.966;7.854;2022-12-18T06:46:30;3.25;;;2.17;;
3527;SDS011;1778;47.966;7.854;2022-12-18T06:47:33;2.00;;;1.85;;
3527;SDS011;1778;47.966;7.854;2022-12-18T06:48:35;2.85;;;1.95;;
3527;SDS011;1778;47.966;7.854;2022-12-18T06:49:37;3.60;;;1.63;;
3527;SDS011;1778;47.966;7.854;2022-12-18T06:50:41;2.58;;;1.35;;
3527;SDS011;1778;47.966;7.854;2022-12-18T06:51:43;1.40;;;1.40;;
3527;SDS011;1778;47.966;7.854;2022-12-18T06:52:45;2.28;;;2.17;;
3527;SDS011;1778;47.966;7.854;2022-12-18T06:53:47;1.88;;;1.20;;
3527;SDS011;1778;47.966;7.854;2022-12-18T06:54:49;6.47;;;2.47;;
3527;SDS011;1778;47.966;7.854;2022-12-18T06:55:50;1.50;;;1.40;;
3527;SDS011;1778;47.966;7.854;2022-12-18T06:56:52;1.80;;;1.80;;
3527;SDS011;1778;47.966;7.854;2022-12-18T06:57:55;4.00;;;1.67;;
3527;SDS011;1778;47.966;7.854;2022-12-18T06:58:57;1.40;;;1.40;;
3527;SDS011;1778;47.966;7.854;2022-12-18T06:59:59;1.50;;;1.50;;
3527;SDS011;1778;47.966;7.854;2022-12-18T07:01:01;2.33;;;1.77;;
3527;SDS011;1778;47.966;7.854;2022-12-18T07:02:10;1.95;;;1.85;;
3527;SDS011;1778;47.966;7.854;2022-12-18T07:03:13;4.28;;;2.03;;
3527;SDS011;1778;47.966;7.854;2022-12-18T07:04:15;1.63;;;1.52;;
3527;SDS011;1778;47.966;7.854;2022-12-18T07:05:16;2.05;;;1.73;;
3527;SDS011;1778;47.966;7.854;2022-12-18T07:06:19;1.95;;;1.85;;
3527;SDS011;1778;47.966;7.854;2022-12-18T07:07:22;2.33;;;2.15;;
3527;SDS011;1778;47.966;7.854;2022-12-18T07:08:23;1.27;;;1.15;;
3527;SDS011;1778;47.966;7.854;2022-12-18T07:09:25;1.33;;;1.33;;
3527;SDS011;1778;47.966;7.854;2022-12-18T07:10:29;1.85;;;1.75;;
3527;SDS011;1778;47.966;7.854;2022-12-18T07:11:34;1.75;;;1.65;;
3527;SDS011;1778;47.966;7.854;2022-12-18T07:12:36;2.72;;;1.63;;
3527;SDS011;1778;47.966;7.854;2022-12-18T07:13:37;1.58;;;1.58;;